Time,TemperatureF,DewpointF,PressureIn,WindDirection,WindDirectionDegrees,WindSpeedMPH,WindSpeedGustMPH,Humidity,HourlyPrecipIn,Conditions,Clouds,dailyrainin,SoftwareType,DateUTC
2013-06-11 00:04:00,65.1,64.5,29.59,SW,225,2.2,-999.0,98,-99.99,,,0.00,Acu-Link.com,2013-06-11 04:04:00,
2013-06-11 00:20:00,65.1,64.5,29.59,ESE,112,1.1,-999.0,98,-99.99,,,0.00,Acu-Link.com,2013-06-11 04:20:00,
2013-06-11 00:35:00,64.9,64.3,29.59,SSE,157,0.0,-999.0,98,-99.99,,,0.00,Acu-Link.com,2013-06-11 04:35:00,
2013-06-11 00:50:00,64.8,64.2,29.59,South,180,0.0,-999.0,98,-99.99,,,0.00,Acu-Link.com,2013-06-11 04:50:00,
2013-06-11 01:06:00,64.6,64.0,29.59,SW,225,2.2,-999.0,98,-99.99,,,0.00,Acu-Link.com,2013-06-11 05:06:00,
2013-06-11 01:21:00,64.2,63.6,29.59,South,180,2.2,-999.0,98,-99.99,,,0.00,Acu-Link.com,2013-06-11 05:21:00,
2013-06-11 01:51:00,64.2,63.6,29.58,SSW,202,1.7,-999.0,98,-99.99,,,0.00,Acu-Link.com,2013-06-11 05:51:00,
2013-06-11 02:06:00,64.0,63.4,29.58,SW,225,1.7,-999.0,98,-99.99,,,0.00,Acu-Link.com,2013-06-11 06:06:00,
2013-06-11 02:21:00,64.0,63.4,29.58,SW,225,0.0,-999.0,98,-99.99,,,0.00,Acu-Link.com,2013-06-11 06:21:00,
2013-06-11 02:37:00,64.0,63.4,29.57,NE,45,2.7,-999.0,98,-99.99,,,0.00,Acu-Link.com,2013-06-11 06:37:00,
2013-06-11 02:52:00,64.0,63.4,29.57,South,180,1.1,-999.0,98,-99.99,,,0.00,Acu-Link.com,2013-06-11 06:52:00,
2013-06-11 03:07:00,63.9,63.3,29.57,SW,225,1.7,-999.0,98,-99.99,,,0.00,Acu-Link.com,2013-06-11 07:07:00,
2013-06-11 03:22:00,64.0,63.4,29.57,WSW,247,0.0,-999.0,98,-99.99,,,0.00,Acu-Link.com,2013-06-11 07:22:00,
2013-06-11 03:37:00,64.0,63.4,29.56,SW,225,0.0,-999.0,98,-99.99,,,0.00,Acu-Link.com,2013-06-11 07:37:00,
2013-06-11 03:53:00,64.0,63.4,29.56,ESE,112,2.7,-999.0,98,-99.99,,,0.00,Acu-Link.com,2013-06-11 07:53:00,
2013-06-11 04:08:00,64.0,63.4,29.55,SSW,202,2.2,-999.0,98,-99.99,,,0.00,Acu-Link.com,2013-06-11 08:08:00,
2013-06-11 04:24:00,63.7,63.1,29.56,SSE,157,2.2,-999.0,98,-99.99,,,0.00,Acu-Link.com,2013-06-11 08:24:00,
2013-06-11 04:39:00,63.1,62.5,29.56,West,270,0.0,-999.0,98,-99.99,,,0.00,Acu-Link.com,2013-06-11 08:39:00,
2013-06-11 04:54:00,62.8,62.2,29.55,SW,225,0.0,-999.0,98,-99.99,,,0.00,Acu-Link.com,2013-06-11 08:54:00,
2013-06-11 05:09:00,62.6,62.0,29.55,WSW,247,0.0,-999.0,98,-99.99,,,0.00,Acu-Link.com,2013-06-11 09:09:00,
2013-06-11 05:24:00,62.4,61.8,29.55,West,270,0.0,-999.0,98,-99.99,,,0.00,Acu-Link.com,2013-06-11 09:24:00,
2013-06-11 05:39:00,62.2,61.6,29.56,NNW,337,0.0,-999.0,98,-99.99,,,0.00,Acu-Link.com,2013-06-11 09:39:00,
2013-06-11 05:55:00,61.5,60.9,29.57,WNW,292,0.0,-999.0,98,-99.99,,,0.01,Acu-Link.com,2013-06-11 09:55:00,
2013-06-11 06:10:00,61.3,60.7,29.56,WNW,292,0.0,-999.0,98,-99.99,,,0.03,Acu-Link.com,2013-06-11 10:10:00,
2013-06-11 06:25:00,61.2,60.6,29.57,East,90,1.7,-999.0,98,-99.99,,,0.05,Acu-Link.com,2013-06-11 10:25:00,
2013-06-11 06:41:00,61.0,60.4,29.58,ESE,112,1.1,-999.0,98,-99.99,,,0.05,Acu-Link.com,2013-06-11 10:41:00,
2013-06-11 07:11:00,61.0,60.4,29.58,SSW,202,0.0,-999.0,98,-99.99,,,0.05,Acu-Link.com,2013-06-11 11:11:00,
2013-06-11 07:26:00,61.2,60.6,29.59,SW,225,1.1,-999.0,98,-99.99,,,0.05,Acu-Link.com,2013-06-11 11:26:00,
2013-06-11 07:42:00,61.2,60.6,29.60,West,270,0.0,-999.0,98,-99.99,,,0.05,Acu-Link.com,2013-06-11 11:42:00,
2013-06-11 07:57:00,61.3,60.7,29.60,WSW,247,0.0,-999.0,98,-99.99,,,0.05,Acu-Link.com,2013-06-11 11:57:00,
2013-06-11 08:12:00,62.1,61.5,29.61,WSW,247,1.1,-999.0,98,-99.99,,,0.05,Acu-Link.com,2013-06-11 12:12:00,
2013-06-11 08:28:00,62.4,61.8,29.61,West,270,0.0,-999.0,98,-99.99,,,0.05,Acu-Link.com,2013-06-11 12:28:00,
2013-06-11 08:43:00,62.8,62.2,29.62,West,270,0.0,-999.0,98,-99.99,,,0.05,Acu-Link.com,2013-06-11 12:43:00,
2013-06-11 08:58:00,63.1,62.5,29.62,WNW,292,2.2,-999.0,98,-99.99,,,0.05,Acu-Link.com,2013-06-11 12:58:00,
2013-06-11 09:14:00,63.9,63.3,29.63,SW,225,0.0,-999.0,98,-99.99,,,0.05,Acu-Link.com,2013-06-11 13:14:00,
2013-06-11 09:29:00,65.5,64.9,29.61,WNW,292,0.0,-999.0,98,-99.99,,,0.05,Acu-Link.com,2013-06-11 13:29:00,
2013-06-11 09:44:00,66.4,65.8,29.62,WNW,292,0.0,-999.0,98,-99.99,,,0.05,Acu-Link.com,2013-06-11 13:44:00,
2013-06-11 10:00:00,67.3,66.7,29.62,West,270,2.7,-999.0,98,-99.99,,,0.05,Acu-Link.com,2013-06-11 14:00:00,
2013-06-11 10:15:00,67.3,66.7,29.64,ESE,112,1.1,-999.0,98,-99.99,,,0.05,Acu-Link.com,2013-06-11 14:15:00,
2013-06-11 10:30:00,66.6,66.0,29.63,ENE,67,1.1,-999.0,98,-99.99,,,0.05,Acu-Link.com,2013-06-11 14:30:00,
2013-06-11 10:46:00,67.1,66.5,29.63,WNW,292,1.7,-999.0,98,-99.99,,,0.05,Acu-Link.com,2013-06-11 14:46:00,
2013-06-11 11:01:00,67.8,66.0,29.63,SSW,202,0.0,-999.0,94,-99.99,,,0.05,Acu-Link.com,2013-06-11 15:01:00,
2013-06-11 11:16:00,67.8,65.7,29.63,WNW,292,2.2,-999.0,93,-99.99,,,0.06,Acu-Link.com,2013-06-11 15:16:00,
2013-06-11 11:32:00,68.5,66.1,29.64,West,270,1.7,-999.0,92,-99.99,,,0.06,Acu-Link.com,2013-06-11 15:32:00,
2013-06-11 11:47:00,69.8,66.7,29.64,WSW,247,2.2,-999.0,90,-99.99,,,0.06,Acu-Link.com,2013-06-11 15:47:00,
2013-06-11 12:02:00,69.1,65.7,29.64,West,270,1.1,-999.0,89,-99.99,,,0.06,Acu-Link.com,2013-06-11 16:02:00,
2013-06-11 12:17:00,70.3,66.2,29.65,WNW,292,1.1,-999.0,87,-99.99,,,0.06,Acu-Link.com,2013-06-11 16:17:00,
2013-06-11 12:32:00,70.5,66.4,29.64,West,270,1.1,-999.0,87,-99.99,,,0.06,Acu-Link.com,2013-06-11 16:32:00,
2013-06-11 12:47:00,71.1,66.7,29.64,WNW,292,0.0,-999.0,86,-99.99,,,0.06,Acu-Link.com,2013-06-11 16:47:00,
2013-06-11 13:03:00,71.4,66.3,29.66,WNW,292,0.0,-999.0,84,-99.99,,,0.06,Acu-Link.com,2013-06-11 17:03:00,
2013-06-11 13:18:00,71.2,66.8,29.65,WNW,292,2.7,-999.0,86,-99.99,,,0.06,Acu-Link.com,2013-06-11 17:18:00,
2013-06-11 13:33:00,71.1,66.4,29.65,WNW,292,1.7,-999.0,85,-99.99,,,0.06,Acu-Link.com,2013-06-11 17:33:00,
2013-06-11 13:48:00,70.7,66.3,29.66,WNW,292,1.7,-999.0,86,-99.99,,,0.06,Acu-Link.com,2013-06-11 17:48:00,
2013-06-11 14:04:00,70.3,65.6,29.66,WNW,292,2.2,-999.0,85,-99.99,,,0.06,Acu-Link.com,2013-06-11 18:04:00,
2013-06-11 14:19:00,71.1,66.4,29.65,North,0,1.1,-999.0,85,-99.99,,,0.06,Acu-Link.com,2013-06-11 18:19:00,
2013-06-11 14:34:00,72.1,66.6,29.65,WNW,292,1.1,-999.0,83,-99.99,,,0.06,Acu-Link.com,2013-06-11 18:34:00,
2013-06-11 14:50:00,72.0,65.5,29.66,West,270,2.7,-999.0,80,-99.99,,,0.06,Acu-Link.com,2013-06-11 18:50:00,
2013-06-11 15:05:00,73.0,65.7,29.66,NW,315,2.7,-999.0,78,-99.99,,,0.06,Acu-Link.com,2013-06-11 19:05:00,
2013-06-11 15:20:00,73.2,65.9,29.67,NNW,337,1.7,-999.0,78,-99.99,,,0.06,Acu-Link.com,2013-06-11 19:20:00,
2013-06-11 15:35:00,73.2,65.9,29.67,WNW,292,0.0,-999.0,78,-99.99,,,0.06,Acu-Link.com,2013-06-11 19:35:00,
2013-06-11 15:51:00,72.9,66.4,29.67,SSW,202,2.2,-999.0,80,-99.99,,,0.06,Acu-Link.com,2013-06-11 19:51:00,
2013-06-11 16:21:00,74.1,65.7,29.67,NW,315,1.7,-999.0,75,-99.99,,,0.06,Acu-Link.com,2013-06-11 20:21:00,
2013-06-11 16:37:00,73.0,65.4,29.65,West,270,4.7,-999.0,77,-99.99,,,0.06,Acu-Link.com,2013-06-11 20:37:00,
2013-06-11 16:52:00,74.3,65.5,29.66,WNW,292,2.7,-999.0,74,-99.99,,,0.06,Acu-Link.com,2013-06-11 20:52:00,
2013-06-11 17:07:00,73.4,65.0,29.67,WNW,292,1.1,-999.0,75,-99.99,,,0.06,Acu-Link.com,2013-06-11 21:07:00,
2013-06-11 17:23:00,75.6,65.1,29.67,NW,315,2.2,-999.0,70,-99.99,,,0.06,Acu-Link.com,2013-06-11 21:23:00,
2013-06-11 17:38:00,75.4,64.5,29.66,NW,315,2.2,-999.0,69,-99.99,,,0.06,Acu-Link.com,2013-06-11 21:38:00,
2013-06-11 17:53:00,74.5,64.5,29.66,West,270,2.7,-999.0,71,-99.99,,,0.06,Acu-Link.com,2013-06-11 21:53:00,
2013-06-11 18:09:00,74.3,64.7,29.66,WNW,292,1.1,-999.0,72,-99.99,,,0.06,Acu-Link.com,2013-06-11 22:09:00,
2013-06-11 18:24:00,74.1,64.9,29.66,West,270,1.1,-999.0,73,-99.99,,,0.06,Acu-Link.com,2013-06-11 22:24:00,
2013-06-11 18:39:00,73.4,65.0,29.66,SSW,202,0.0,-999.0,75,-99.99,,,0.06,Acu-Link.com,2013-06-11 22:39:00,
2013-06-11 18:55:00,73.2,64.4,29.67,West,270,0.0,-999.0,74,-99.99,,,0.06,Acu-Link.com,2013-06-11 22:55:00,
2013-06-11 19:10:00,72.9,64.1,29.67,West,270,0.0,-999.0,74,-99.99,,,0.06,Acu-Link.com,2013-06-11 23:10:00,
2013-06-11 19:25:00,72.5,64.9,29.67,SW,225,0.0,-999.0,77,-99.99,,,0.06,Acu-Link.com,2013-06-11 23:25:00,
2013-06-11 19:41:00,71.6,64.4,29.69,SSW,202,0.0,-999.0,78,-99.99,,,0.06,Acu-Link.com,2013-06-11 23:41:00,
2013-06-11 20:11:00,70.2,63.7,29.70,East,90,0.0,-999.0,80,-99.99,,,0.06,Acu-Link.com,2013-06-12 00:11:00,
2013-06-11 20:27:00,70.0,63.5,29.71,North,0,1.1,-999.0,80,-99.99,,,0.06,Acu-Link.com,2013-06-12 00:27:00,
2013-06-11 20:42:00,69.1,63.4,29.71,South,180,0.0,-999.0,82,-99.99,,,0.06,Acu-Link.com,2013-06-12 00:42:00,
2013-06-11 20:57:00,68.4,63.0,29.71,SW,225,0.0,-999.0,83,-99.99,,,0.06,Acu-Link.com,2013-06-12 00:57:00,
2013-06-11 21:13:00,67.8,62.8,29.71,SW,225,0.0,-999.0,84,-99.99,,,0.06,Acu-Link.com,2013-06-12 01:13:00,
2013-06-11 21:28:00,67.3,62.6,29.72,SW,225,0.0,-999.0,85,-99.99,,,0.06,Acu-Link.com,2013-06-12 01:28:00,
2013-06-11 21:43:00,67.1,62.8,29.73,SW,225,0.0,-999.0,86,-99.99,,,0.06,Acu-Link.com,2013-06-12 01:43:00,
2013-06-11 21:59:00,66.9,63.5,29.73,SSW,202,0.0,-999.0,89,-99.99,,,0.06,Acu-Link.com,2013-06-12 01:59:00,
2013-06-11 22:14:00,66.4,62.1,29.74,NW,315,1.7,-999.0,86,-99.99,,,0.06,Acu-Link.com,2013-06-12 02:14:00,
2013-06-11 22:29:00,66.6,61.6,29.74,NNE,22,0.0,-999.0,84,-99.99,,,0.06,Acu-Link.com,2013-06-12 02:29:00,
2013-06-11 22:45:00,66.6,61.6,29.74,NNE,22,1.7,-999.0,84,-99.99,,,0.06,Acu-Link.com,2013-06-12 02:45:00,
2013-06-11 23:00:00,66.4,61.1,29.74,WNW,292,1.1,-999.0,83,-99.99,,,0.06,Acu-Link.com,2013-06-12 03:00:00,
2013-06-11 23:15:00,66.0,61.0,29.75,East,90,0.0,-999.0,84,-99.99,,,0.06,Acu-Link.com,2013-06-12 03:15:00,
2013-06-11 23:31:00,65.5,60.5,29.74,NNE,22,0.0,-999.0,84,-99.99,,,0.06,Acu-Link.com,2013-06-12 03:31:00,
2013-06-11 23:46:00,65.3,60.7,29.75,NNE,22,0.0,-999.0,85,-99.99,,,0.06,Acu-Link.com,2013-06-12 03:46:00,